Strona główna
METAR-TAF:

METAR-TAF

Lotnisko :

Hartness State Airport

Springfield, Vermont, Stany Zjednoczone

Szerokość geograficzna: 43-20-33N, Długość geograficzna: 072-31-18W, wysokość: 175 m

Aktualna obserwacja pogody

Raport powstał 33 minut temu, godzina 10:22 UTC
Cisza
Temperatura 1°C
Wilgotność 93%
Ciśnienie 1006 hPa
Widzialność: 4.8 km
Zachmurzenie całkowite na wysokości 400 ft
słaby deszcz, zamglenie

METAR: KVSF 191022Z AUTO 00000KT 3SM -RA BR OVC004 01/00 A2972 RMK AO2 UPB06E07 P0001 T00060000

czas: 05:55 (10:55 UTC)


TAF: brakujący

Obserwacja i prognoza pogody dla ponad 4000 lotnisk (raport METAR i TAF).

Dostępne stacje oznaczono żółtymi i czerwonymi punktami na mapie.

Najedź kursorem aby zobaczyć nazwę stacji.

Kliknij aby zobaczyć obserwacje i prognozy pogody.

Aby zmienić mapę: kliknij na zielony przycisk z czarnym krzyżykiem, aby powiększyć; na zielony przycisk z myślnikiem, aby pomniejszyć; na zielone strzałki, aby przejść do map sąsiednich.


METAR-TAF: